sensor_id;sensor_type;location;lat;lon;timestamp;pressure;altitude;pressure_sealevel;temperature;humidity
39789;BME280;25478;42.626;23.320;2023-08-08T00:00:35;93017.75;;;15.30;100.00
39789;BME280;25478;42.626;23.320;2023-08-08T00:03:01;93016.94;;;15.33;100.00
39789;BME280;25478;42.626;23.320;2023-08-08T00:05:26;93019.66;;;15.29;100.00
39789;BME280;25478;42.626;23.320;2023-08-08T00:07:52;93003.69;;;15.09;100.00
39789;BME280;25478;42.626;23.320;2023-08-08T00:10:17;93010.16;;;15.08;100.00
39789;BME280;25478;42.626;23.320;2023-08-08T00:12:43;93024.25;;;15.02;100.00
39789;BME280;25478;42.626;23.320;2023-08-08T00:15:08;92995.47;;;14.77;100.00
39789;BME280;25478;42.626;23.320;2023-08-08T00:17:35;93022.19;;;14.89;100.00
39789;BME280;25478;42.626;23.320;2023-08-08T00:20:01;93014.28;;;14.86;100.00
39789;BME280;25478;42.626;23.320;2023-08-08T00:22:27;93012.38;;;14.86;100.00
39789;BME280;25478;42.626;23.320;2023-08-08T00:24:53;93010.19;;;14.81;100.00
39789;BME280;25478;42.626;23.320;2023-08-08T00:27:18;93021.53;;;14.82;100.00
39789;BME280;25478;42.626;23.320;2023-08-08T00:29:44;93007.06;;;14.63;100.00
39789;BME280;25478;42.626;23.320;2023-08-08T00:32:10;93031.25;;;14.65;100.00
39789;BME280;25478;42.626;23.320;2023-08-08T00:34:36;93023.41;;;14.54;100.00
39789;BME280;25478;42.626;23.320;2023-08-08T00:37:02;93033.75;;;14.45;100.00
39789;BME280;25478;42.626;23.320;2023-08-08T00:39:27;93019.88;;;14.34;100.00
39789;BME280;25478;42.626;23.320;2023-08-08T00:41:53;93020.19;;;14.40;100.00
39789;BME280;25478;42.626;23.320;2023-08-08T00:44:18;93016.19;;;14.28;100.00
39789;BME280;25478;42.626;23.320;2023-08-08T00:46:44;93011.25;;;14.30;100.00
39789;BME280;25478;42.626;23.320;2023-08-08T00:49:10;93014.66;;;14.30;100.00
39789;BME280;25478;42.626;23.320;2023-08-08T00:51:36;93016.84;;;14.35;100.00
39789;BME280;25478;42.626;23.320;2023-08-08T00:54:03;93021.38;;;14.35;100.00
39789;BME280;25478;42.626;23.320;2023-08-08T00:56:31;93015.91;;;14.19;100.00
39789;BME280;25478;42.626;23.320;2023-08-08T00:58:57;93015.81;;;14.26;100.00
39789;BME280;25478;42.626;23.320;2023-08-08T01:01:23;93005.03;;;14.13;100.00
39789;BME280;25478;42.626;23.320;2023-08-08T01:03:48;93011.63;;;14.28;100.00
39789;BME280;25478;42.626;23.320;2023-08-08T01:09:01;93026.41;;;14.29;100.00
39789;BME280;25478;42.626;23.320;2023-08-08T01:11:33;93029.72;;;14.33;100.00
39789;BME280;25478;42.626;23.320;2023-08-08T01:14:00;93029.78;;;14.30;100.00
39789;BME280;25478;42.626;23.320;2023-08-08T01:16:27;93021.13;;;14.26;100.00
39789;BME280;25478;42.626;23.320;2023-08-08T01:18:55;93028.66;;;14.27;100.00
39789;BME280;25478;42.626;23.320;2023-08-08T01:21:20;93021.63;;;14.17;100.00
39789;BME280;25478;42.626;23.320;2023-08-08T01:23:53;93023.44;;;14.24;100.00
39789;BME280;25478;42.626;23.320;2023-08-08T01:26:21;93022.34;;;14.21;100.00
39789;BME280;25478;42.626;23.320;2023-08-08T01:28:47;93029.59;;;14.14;100.00
39789;BME280;25478;42.626;23.320;2023-08-08T01:31:13;93035.66;;;14.14;100.00
39789;BME280;25478;42.626;23.320;2023-08-08T01:33:39;93043.22;;;14.12;100.00
39789;BME280;25478;42.626;23.320;2023-08-08T01:36:13;93043.66;;;14.07;100.00
39789;BME280;25478;42.626;23.320;2023-08-08T01:38:46;93050.88;;;14.03;100.00
39789;BME280;25478;42.626;23.320;2023-08-08T01:41:13;93055.84;;;14.01;100.00
39789;BME280;25478;42.626;23.320;2023-08-08T01:43:41;93072.81;;;14.03;100.00
39789;BME280;25478;42.626;23.320;2023-08-08T01:46:07;93074.34;;;14.01;100.00
39789;BME280;25478;42.626;23.320;2023-08-08T01:48:33;93077.13;;;13.90;100.00
39789;BME280;25478;42.626;23.320;2023-08-08T01:50:59;93087.25;;;13.99;100.00
39789;BME280;25478;42.626;23.320;2023-08-08T01:53:25;93098.63;;;13.96;100.00
39789;BME280;25478;42.626;23.320;2023-08-08T01:55:52;93091.03;;;13.98;100.00
39789;BME280;25478;42.626;23.320;2023-08-08T01:58:18;93080.19;;;13.85;100.00
39789;BME280;25478;42.626;23.320;2023-08-08T02:00:43;93103.13;;;13.95;100.00
39789;BME280;25478;42.626;23.320;2023-08-08T02:03:10;93113.66;;;14.02;100.00
39789;BME280;25478;42.626;23.320;2023-08-08T02:05:36;93113.31;;;14.00;100.00
39789;BME280;25478;42.626;23.320;2023-08-08T02:08:02;93115.56;;;14.02;100.00
39789;BME280;25478;42.626;23.320;2023-08-08T02:10:29;93116.25;;;14.09;100.00
39789;BME280;25478;42.626;23.320;2023-08-08T02:12:55;93112.03;;;14.12;100.00
39789;BME280;25478;42.626;23.320;2023-08-08T02:15:20;93111.28;;;14.15;100.00
39789;BME280;25478;42.626;23.320;2023-08-08T02:17:46;93116.22;;;14.13;100.00
39789;BME280;25478;42.626;23.320;2023-08-08T02:20:12;93123.75;;;14.15;100.00
39789;BME280;25478;42.626;23.320;2023-08-08T02:22:38;93130.22;;;14.10;100.00
39789;BME280;25478;42.626;23.320;2023-08-08T02:25:04;93132.88;;;14.10;100.00
39789;BME280;25478;42.626;23.320;2023-08-08T02:27:30;93140.41;;;14.12;100.00
39789;BME280;25478;42.626;23.320;2023-08-08T02:29:56;93138.16;;;14.10;100.00
39789;BME280;25478;42.626;23.320;2023-08-08T02:32:23;93130.97;;;14.11;100.00
39789;BME280;25478;42.626;23.320;2023-08-08T02:34:49;93131.03;;;14.07;100.00
39789;BME280;25478;42.626;23.320;2023-08-08T02:37:14;93137.09;;;14.04;100.00
39789;BME280;25478;42.626;23.320;2023-08-08T02:39:43;93080.38;;;13.67;100.00
39789;BME280;25478;42.626;23.320;2023-08-08T02:42:10;93139.03;;;14.00;100.00
39789;BME280;25478;42.626;23.320;2023-08-08T02:44:35;93146.16;;;14.03;100.00
39789;BME280;25478;42.626;23.320;2023-08-08T02:47:01;93145.81;;;14.04;100.00
39789;BME280;25478;42.626;23.320;2023-08-08T02:49:26;93144.31;;;14.00;100.00
39789;BME280;25478;42.626;23.320;2023-08-08T02:51:52;93113.81;;;13.88;100.00
39789;BME280;25478;42.626;23.320;2023-08-08T02:54:17;93154.78;;;14.11;100.00
39789;BME280;25478;42.626;23.320;2023-08-08T02:56:43;93153.28;;;14.09;100.00
39789;BME280;25478;42.626;23.320;2023-08-08T02:59:10;93158.59;;;14.09;100.00
39789;BME280;25478;42.626;23.320;2023-08-08T03:01:36;93163.47;;;14.11;100.00
39789;BME280;25478;42.626;23.320;2023-08-08T03:04:06;93157.84;;;14.09;100.00
39789;BME280;25478;42.626;23.320;2023-08-08T03:06:32;93149.22;;;14.01;100.00
39789;BME280;25478;42.626;23.320;2023-08-08T03:08:57;93160.13;;;14.07;100.00
39789;BME280;25478;42.626;23.320;2023-08-08T03:11:23;93160.50;;;14.09;100.00
39789;BME280;25478;42.626;23.320;2023-08-08T03:13:49;93162.72;;;14.11;100.00
39789;BME280;25478;42.626;23.320;2023-08-08T03:16:14;93151.41;;;14.10;100.00
39789;BME280;25478;42.626;23.320;2023-08-08T03:18:41;93151.03;;;14.08;100.00
39789;BME280;25478;42.626;23.320;2023-08-08T03:21:07;93152.63;;;14.02;100.00
39789;BME280;25478;42.626;23.320;2023-08-08T03:23:33;93156.81;;;13.99;100.00
39789;BME280;25478;42.626;23.320;2023-08-08T03:25:59;93140.66;;;13.87;100.00
39789;BME280;25478;42.626;23.320;2023-08-08T03:28:25;93164.00;;;13.95;100.00
39789;BME280;25478;42.626;23.320;2023-08-08T03:30:53;93163.38;;;13.84;100.00
39789;BME280;25478;42.626;23.320;2023-08-08T03:33:18;93166.41;;;13.83;100.00
39789;BME280;25478;42.626;23.320;2023-08-08T03:35:44;93169.47;;;13.77;100.00
39789;BME280;25478;42.626;23.320;2023-08-08T03:38:09;93163.84;;;13.72;100.00
39789;BME280;25478;42.626;23.320;2023-08-08T03:40:35;93169.09;;;13.75;100.00
39789;BME280;25478;42.626;23.320;2023-08-08T03:43:01;93160.78;;;13.77;100.00
39789;BME280;25478;42.626;23.320;2023-08-08T03:45:28;93167.22;;;13.76;100.00
39789;BME280;25478;42.626;23.320;2023-08-08T03:47:53;93131.56;;;13.43;100.00
39789;BME280;25478;42.626;23.320;2023-08-08T03:50:19;93169.50;;;13.70;100.00
39789;BME280;25478;42.626;23.320;2023-08-08T03:52:45;93155.88;;;13.75;100.00
39789;BME280;25478;42.626;23.320;2023-08-08T03:55:11;93163.00;;;13.82;100.00
39789;BME280;25478;42.626;23.320;2023-08-08T03:57:37;93162.97;;;13.86;100.00
39789;BME280;25478;42.626;23.320;2023-08-08T04:00:03;93160.72;;;13.84;100.00
39789;BME280;25478;42.626;23.320;2023-08-08T04:02:39;93172.75;;;13.92;100.00
39789;BME280;25478;42.626;23.320;2023-08-08T04:05:05;93170.03;;;13.99;100.00
39789;BME280;25478;42.626;23.320;2023-08-08T04:07:31;93179.06;;;14.02;100.00
39789;BME280;25478;42.626;23.320;2023-08-08T04:09:57;93177.56;;;14.04;100.00
39789;BME280;25478;42.626;23.320;2023-08-08T04:12:23;93192.66;;;14.04;100.00
39789;BME280;25478;42.626;23.320;2023-08-08T04:14:48;93199.84;;;14.07;100.00
39789;BME280;25478;42.626;23.320;2023-08-08T04:17:14;93195.28;;;14.07;100.00
39789;BME280;25478;42.626;23.320;2023-08-08T04:19:39;93204.34;;;14.10;100.00
39789;BME280;25478;42.626;23.320;2023-08-08T04:22:05;93201.28;;;14.12;100.00
39789;BME280;25478;42.626;23.320;2023-08-08T04:24:30;93207.75;;;14.11;100.00
39789;BME280;25478;42.626;23.320;2023-08-08T04:26:56;93216.75;;;14.17;100.00
39789;BME280;25478;42.626;23.320;2023-08-08T04:29:21;93213.38;;;14.16;100.00
39789;BME280;25478;42.626;23.320;2023-08-08T04:33:47;93210.00;;;14.12;100.00
39789;BME280;25478;42.626;23.320;2023-08-08T04:36:13;93222.47;;;14.15;100.00
39789;BME280;25478;42.626;23.320;2023-08-08T04:38:38;93216.69;;;14.24;100.00
39789;BME280;25478;42.626;23.320;2023-08-08T04:41:04;93221.16;;;14.34;100.00
39789;BME280;25478;42.626;23.320;2023-08-08T04:43:29;93222.56;;;14.42;100.00
39789;BME280;25478;42.626;23.320;2023-08-08T04:45:55;93216.13;;;14.43;100.00
39789;BME280;25478;42.626;23.320;2023-08-08T04:48:20;93216.44;;;14.52;100.00
39789;BME280;25478;42.626;23.320;2023-08-08T04:50:46;93217.09;;;14.63;100.00
39789;BME280;25478;42.626;23.320;2023-08-08T04:53:12;93221.13;;;14.75;100.00
39789;BME280;25478;42.626;23.320;2023-08-08T04:55:38;93206.28;;;14.81;100.00
39789;BME280;25478;42.626;23.320;2023-08-08T04:58:04;93190.13;;;14.72;100.00
39789;BME280;25478;42.626;23.320;2023-08-08T05:00:30;93212.28;;;14.85;100.00
39789;BME280;25478;42.626;23.320;2023-08-08T05:02:55;93226.63;;;14.88;100.00
39789;BME280;25478;42.626;23.320;2023-08-08T05:05:21;93241.78;;;14.87;99.97
39789;BME280;25478;42.626;23.320;2023-08-08T05:07:46;93249.31;;;14.92;99.85
39789;BME280;25478;42.626;23.320;2023-08-08T05:10:12;93244.91;;;14.82;99.58
39789;BME280;25478;42.626;23.320;2023-08-08T05:12:37;93262.50;;;15.00;99.15
39789;BME280;25478;42.626;23.320;2023-08-08T05:15:04;93267.63;;;15.14;98.15
39789;BME280;25478;42.626;23.320;2023-08-08T05:17:30;93272.72;;;15.32;97.64
39789;BME280;25478;42.626;23.320;2023-08-08T05:19:56;93275.91;;;15.46;96.44
39789;BME280;25478;42.626;23.320;2023-08-08T05:22:22;93282.16;;;15.63;95.22
39789;BME280;25478;42.626;23.320;2023-08-08T05:24:47;93291.91;;;15.73;94.15
39789;BME280;25478;42.626;23.320;2023-08-08T05:27:13;93281.56;;;15.79;92.96
39789;BME280;25478;42.626;23.320;2023-08-08T05:29:38;93288.28;;;15.87;92.37
39789;BME280;25478;42.626;23.320;2023-08-08T05:32:07;93291.31;;;15.89;91.65
39789;BME280;25478;42.626;23.320;2023-08-08T05:34:35;93298.56;;;15.85;91.93
39789;BME280;25478;42.626;23.320;2023-08-08T05:37:01;93292.34;;;15.95;91.48
39789;BME280;25478;42.626;23.320;2023-08-08T05:39:27;93291.28;;;16.16;91.18
39789;BME280;25478;42.626;23.320;2023-08-08T05:41:52;93263.03;;;16.26;89.61
39789;BME280;25478;42.626;23.320;2023-08-08T05:44:18;93302.31;;;16.85;88.34
39789;BME280;25478;42.626;23.320;2023-08-08T05:46:43;93306.84;;;17.08;86.26
39789;BME280;25478;42.626;23.320;2023-08-08T05:49:09;93313.91;;;17.14;85.38
39789;BME280;25478;42.626;23.320;2023-08-08T05:51:34;93311.41;;;17.27;85.01
39789;BME280;25478;42.626;23.320;2023-08-08T05:54:00;93315.63;;;17.44;84.81
39789;BME280;25478;42.626;23.320;2023-08-08T05:56:34;93308.28;;;17.49;84.11
39789;BME280;25478;42.626;23.320;2023-08-08T05:59:00;93325.09;;;17.45;83.90
39789;BME280;25478;42.626;23.320;2023-08-08T06:01:25;93344.41;;;17.30;84.21
39789;BME280;25478;42.626;23.320;2023-08-08T06:03:51;93351.78;;;17.22;84.60
39789;BME280;25478;42.626;23.320;2023-08-08T06:06:18;93355.78;;;17.30;84.34
39789;BME280;25478;42.626;23.320;2023-08-08T06:08:43;93341.16;;;17.42;84.06
39789;BME280;25478;42.626;23.320;2023-08-08T06:11:09;93342.94;;;17.65;83.82
39789;BME280;25478;42.626;23.320;2023-08-08T06:13:35;93344.53;;;17.82;83.83
39789;BME280;25478;42.626;23.320;2023-08-08T06:16:00;93338.06;;;17.83;81.99
39789;BME280;25478;42.626;23.320;2023-08-08T06:18:26;93338.72;;;17.67;81.74
39789;BME280;25478;42.626;23.320;2023-08-08T06:20:52;93331.59;;;17.44;81.18
39789;BME280;25478;42.626;23.320;2023-08-08T06:23:17;93332.00;;;17.43;81.21
39789;BME280;25478;42.626;23.320;2023-08-08T06:25:43;93330.50;;;17.42;81.83
39789;BME280;25478;42.626;23.320;2023-08-08T06:28:08;93333.41;;;17.48;79.74
39789;BME280;25478;42.626;23.320;2023-08-08T06:30:34;93329.56;;;17.32;80.08
39789;BME280;25478;42.626;23.320;2023-08-08T06:32:59;93327.63;;;17.33;79.53
39789;BME280;25478;42.626;23.320;2023-08-08T06:35:25;93323.88;;;17.30;79.17
39789;BME280;25478;42.626;23.320;2023-08-08T06:37:50;93325.22;;;17.38;78.05
39789;BME280;25478;42.626;23.320;2023-08-08T06:40:16;93329.13;;;17.34;76.81
39789;BME280;25478;42.626;23.320;2023-08-08T06:42:42;93328.38;;;17.33;77.35
39789;BME280;25478;42.626;23.320;2023-08-08T06:45:07;93324.00;;;17.43;75.41
39789;BME280;25478;42.626;23.320;2023-08-08T06:47:35;93314.72;;;17.51;74.35
39789;BME280;25478;42.626;23.320;2023-08-08T06:50:00;93325.31;;;17.75;72.25
39789;BME280;25478;42.626;23.320;2023-08-08T06:52:26;93321.66;;;17.85;72.44
39789;BME280;25478;42.626;23.320;2023-08-08T06:54:51;93311.34;;;17.87;72.46
39789;BME280;25478;42.626;23.320;2023-08-08T06:57:17;93331.00;;;17.93;72.71
39789;BME280;25478;42.626;23.320;2023-08-08T06:59:42;93304.06;;;17.71;73.49
39789;BME280;25478;42.626;23.320;2023-08-08T07:02:08;93324.94;;;17.72;73.74
39789;BME280;25478;42.626;23.320;2023-08-08T07:06:12;93308.38;;;17.45;72.37
39789;BME280;25478;42.626;23.320;2023-08-08T07:08:38;93339.16;;;17.66;72.11
39789;BME280;25478;42.626;23.320;2023-08-08T07:11:06;93317.06;;;17.65;73.00
39789;BME280;25478;42.626;23.320;2023-08-08T07:13:32;93328.84;;;18.04;72.67
39789;BME280;25478;42.626;23.320;2023-08-08T07:15:57;93327.53;;;18.12;72.14
39789;BME280;25478;42.626;23.320;2023-08-08T07:18:23;93308.78;;;18.16;71.41
39789;BME280;25478;42.626;23.320;2023-08-08T07:20:49;93331.13;;;18.38;67.46
39789;BME280;25478;42.626;23.320;2023-08-08T07:23:15;93333.88;;;18.35;67.13
39789;BME280;25478;42.626;23.320;2023-08-08T07:25:42;93324.97;;;18.25;67.42
39789;BME280;25478;42.626;23.320;2023-08-08T07:28:07;93329.09;;;18.10;68.84
39789;BME280;25478;42.626;23.320;2023-08-08T07:30:34;93305.19;;;18.06;67.32
39789;BME280;25478;42.626;23.320;2023-08-08T07:33:00;93329.34;;;18.32;65.85
39789;BME280;25478;42.626;23.320;2023-08-08T07:35:25;93333.19;;;18.31;66.69
39789;BME280;25478;42.626;23.320;2023-08-08T07:37:50;93334.19;;;18.37;67.07
39789;BME280;25478;42.626;23.320;2023-08-08T07:40:17;93336.34;;;18.58;66.73
39789;BME280;25478;42.626;23.320;2023-08-08T07:42:44;93332.13;;;18.77;67.37
39789;BME280;25478;42.626;23.320;2023-08-08T07:45:09;93335.09;;;18.95;64.79
39789;BME280;25478;42.626;23.320;2023-08-08T07:47:35;93338.41;;;18.99;64.43
39789;BME280;25478;42.626;23.320;2023-08-08T07:50:00;93336.09;;;19.01;64.90
39789;BME280;25478;42.626;23.320;2023-08-08T07:52:26;93326.06;;;19.05;65.50
39789;BME280;25478;42.626;23.320;2023-08-08T07:54:51;93325.69;;;19.20;63.72
39789;BME280;25478;42.626;23.320;2023-08-08T07:57:18;93326.19;;;19.15;63.51
39789;BME280;25478;42.626;23.320;2023-08-08T07:59:43;93338.97;;;19.07;64.47
39789;BME280;25478;42.626;23.320;2023-08-08T08:02:09;93333.16;;;18.96;64.30
39789;BME280;25478;42.626;23.320;2023-08-08T08:04:34;93334.03;;;18.93;64.98
39789;BME280;25478;42.626;23.320;2023-08-08T08:07:00;93324.81;;;19.10;63.79
39789;BME280;25478;42.626;23.320;2023-08-08T08:09:26;93333.28;;;19.21;63.96
39789;BME280;25478;42.626;23.320;2023-08-08T08:11:51;93323.84;;;19.46;64.30
39789;BME280;25478;42.626;23.320;2023-08-08T08:14:17;93327.81;;;19.54;61.21
39789;BME280;25478;42.626;23.320;2023-08-08T08:16:44;93309.00;;;19.45;58.83
39789;BME280;25478;42.626;23.320;2023-08-08T08:19:10;93324.47;;;19.50;60.08
39789;BME280;25478;42.626;23.320;2023-08-08T08:21:36;93327.38;;;19.43;60.60
39789;BME280;25478;42.626;23.320;2023-08-08T08:24:01;93328.63;;;19.38;60.41
39789;BME280;25478;42.626;23.320;2023-08-08T08:26:27;93249.44;;;18.77;60.27
39789;BME280;25478;42.626;23.320;2023-08-08T08:28:53;93311.59;;;19.19;61.49
39789;BME280;25478;42.626;23.320;2023-08-08T08:31:18;93323.28;;;19.38;62.14
39789;BME280;25478;42.626;23.320;2023-08-08T08:33:44;93330.06;;;19.55;60.09
39789;BME280;25478;42.626;23.320;2023-08-08T08:36:09;93325.66;;;19.49;60.21
39789;BME280;25478;42.626;23.320;2023-08-08T08:38:35;93326.81;;;19.48;60.63
39789;BME280;25478;42.626;23.320;2023-08-08T08:41:02;93329.66;;;19.57;61.17
39789;BME280;25478;42.626;23.320;2023-08-08T08:43:28;93327.75;;;19.70;61.69
39789;BME280;25478;42.626;23.320;2023-08-08T08:45:54;93321.91;;;19.88;60.38
39789;BME280;25478;42.626;23.320;2023-08-08T08:48:21;93329.69;;;19.82;60.80
39789;BME280;25478;42.626;23.320;2023-08-08T08:50:48;93332.69;;;19.72;59.99
39789;BME280;25478;42.626;23.320;2023-08-08T08:53:15;93332.31;;;19.57;60.39
39789;BME280;25478;42.626;23.320;2023-08-08T08:55:41;93334.94;;;19.44;59.62
39789;BME280;25478;42.626;23.320;2023-08-08T08:58:07;93326.47;;;19.33;58.93
39789;BME280;25478;42.626;23.320;2023-08-08T09:00:34;93264.84;;;18.86;60.72
39789;BME280;25478;42.626;23.320;2023-08-08T09:03:00;93315.63;;;19.11;59.67
39789;BME280;25478;42.626;23.320;2023-08-08T09:05:26;93337.66;;;18.99;60.90
39789;BME280;25478;42.626;23.320;2023-08-08T09:07:51;93335.69;;;18.87;62.78
39789;BME280;25478;42.626;23.320;2023-08-08T09:10:18;93337.50;;;18.90;63.91
39789;BME280;25478;42.626;23.320;2023-08-08T09:12:45;93331.69;;;18.95;64.31
39789;BME280;25478;42.626;23.320;2023-08-08T09:15:11;93336.75;;;18.89;63.85
39789;BME280;25478;42.626;23.320;2023-08-08T09:17:41;93318.69;;;18.80;63.67
39789;BME280;25478;42.626;23.320;2023-08-08T09:20:07;93333.59;;;18.94;61.97
39789;BME280;25478;42.626;23.320;2023-08-08T09:22:33;93336.41;;;19.03;63.11
39789;BME280;25478;42.626;23.320;2023-08-08T09:24:59;93346.66;;;19.05;62.45
39789;BME280;25478;42.626;23.320;2023-08-08T09:27:24;93344.53;;;18.83;61.30
39789;BME280;25478;42.626;23.320;2023-08-08T09:29:50;93340.88;;;18.77;60.61
39789;BME280;25478;42.626;23.320;2023-08-08T09:32:15;93338.03;;;18.84;60.01
39789;BME280;25478;42.626;23.320;2023-08-08T09:34:43;93317.03;;;18.70;61.71
39789;BME280;25478;42.626;23.320;2023-08-08T09:37:09;93351.13;;;19.08;62.74
39789;BME280;25478;42.626;23.320;2023-08-08T09:39:36;93319.25;;;18.88;61.95
39789;BME280;25478;42.626;23.320;2023-08-08T09:42:02;93345.78;;;18.79;62.49
39789;BME280;25478;42.626;23.320;2023-08-08T09:44:29;93333.59;;;18.62;63.61
39789;BME280;25478;42.626;23.320;2023-08-08T09:46:57;93333.28;;;18.76;64.84
39789;BME280;25478;42.626;23.320;2023-08-08T09:49:23;93361.16;;;19.04;65.06
39789;BME280;25478;42.626;23.320;2023-08-08T09:51:51;93356.13;;;19.22;61.94
39789;BME280;25478;42.626;23.320;2023-08-08T09:54:18;93363.34;;;19.09;61.50
39789;BME280;25478;42.626;23.320;2023-08-08T09:56:44;93353.00;;;18.95;62.43
39789;BME280;25478;42.626;23.320;2023-08-08T09:59:09;93356.31;;;18.99;63.14
39789;BME280;25478;42.626;23.320;2023-08-08T10:01:36;93362.22;;;19.06;62.82
39789;BME280;25478;42.626;23.320;2023-08-08T10:04:06;93346.94;;;19.23;61.49
39789;BME280;25478;42.626;23.320;2023-08-08T10:06:31;93340.16;;;19.35;60.22
39789;BME280;25478;42.626;23.320;2023-08-08T10:08:57;93340.91;;;19.35;59.79
39789;BME280;25478;42.626;23.320;2023-08-08T10:11:24;93349.97;;;19.38;59.56
39789;BME280;25478;42.626;23.320;2023-08-08T10:13:52;93347.94;;;19.42;59.26
39789;BME280;25478;42.626;23.320;2023-08-08T10:16:18;93342.59;;;19.42;60.24
39789;BME280;25478;42.626;23.320;2023-08-08T10:18:45;93350.03;;;19.51;60.65
39789;BME280;25478;42.626;23.320;2023-08-08T10:21:12;93334.72;;;19.38;61.73
39789;BME280;25478;42.626;23.320;2023-08-08T10:23:39;93348.66;;;19.59;61.73
39789;BME280;25478;42.626;23.320;2023-08-08T10:26:16;93343.47;;;19.68;60.83
39789;BME280;25478;42.626;23.320;2023-08-08T10:28:53;93343.16;;;19.79;59.45
39789;BME280;25478;42.626;23.320;2023-08-08T10:31:20;93340.91;;;19.90;59.60
39789;BME280;25478;42.626;23.320;2023-08-08T10:33:46;93320.41;;;19.87;57.64
39789;BME280;25478;42.626;23.320;2023-08-08T10:36:12;93338.88;;;19.81;58.06
39789;BME280;25478;42.626;23.320;2023-08-08T10:38:49;93335.47;;;19.81;58.78
39789;BME280;25478;42.626;23.320;2023-08-08T10:41:19;93317.94;;;19.92;59.86
39789;BME280;25478;42.626;23.320;2023-08-08T10:43:53;93320.84;;;20.11;58.84
39789;BME280;25478;42.626;23.320;2023-08-08T10:48:51;93318.38;;;20.29;58.45
39789;BME280;25478;42.626;23.320;2023-08-08T10:51:16;93300.84;;;20.28;56.92
39789;BME280;25478;42.626;23.320;2023-08-08T10:53:43;93317.50;;;20.32;56.35
39789;BME280;25478;42.626;23.320;2023-08-08T10:56:12;93320.50;;;20.34;56.02
39789;BME280;25478;42.626;23.320;2023-08-08T10:58:47;93317.41;;;20.23;55.87
39789;BME280;25478;42.626;23.320;2023-08-08T11:01:13;93314.66;;;20.27;56.56
39789;BME280;25478;42.626;23.320;2023-08-08T11:03:40;93325.31;;;20.39;57.11
39789;BME280;25478;42.626;23.320;2023-08-08T11:06:07;93304.91;;;20.45;55.99
39789;BME280;25478;42.626;23.320;2023-08-08T11:08:33;93293.00;;;20.34;56.06
39789;BME280;25478;42.626;23.320;2023-08-08T11:11:00;93317.31;;;20.52;54.90
39789;BME280;25478;42.626;23.320;2023-08-08T11:13:26;93314.31;;;20.50;54.75
39789;BME280;25478;42.626;23.320;2023-08-08T11:15:51;93322.75;;;20.48;53.55
39789;BME280;25478;42.626;23.320;2023-08-08T11:18:17;93316.78;;;20.44;54.01
39789;BME280;25478;42.626;23.320;2023-08-08T11:20:43;93311.00;;;20.46;53.98
39789;BME280;25478;42.626;23.320;2023-08-08T11:23:09;93309.28;;;20.52;55.03
39789;BME280;25478;42.626;23.320;2023-08-08T11:25:42;93317.94;;;20.56;54.28
39789;BME280;25478;42.626;23.320;2023-08-08T11:28:09;93304.91;;;20.45;53.76
39789;BME280;25478;42.626;23.320;2023-08-08T11:30:37;93311.50;;;20.41;54.00
39789;BME280;25478;42.626;23.320;2023-08-08T11:33:03;93315.03;;;20.50;53.75
39789;BME280;25478;42.626;23.320;2023-08-08T11:35:29;93311.72;;;20.59;52.84
39789;BME280;25478;42.626;23.320;2023-08-08T11:37:58;93314.28;;;20.63;52.72
39789;BME280;25478;42.626;23.320;2023-08-08T11:40:26;93308.28;;;20.59;52.52
39789;BME280;25478;42.626;23.320;2023-08-08T11:42:53;93311.97;;;20.52;52.49
39789;BME280;25478;42.626;23.320;2023-08-08T11:45:19;93310.78;;;20.53;53.61
39789;BME280;25478;42.626;23.320;2023-08-08T11:47:49;93305.53;;;20.62;54.24
39789;BME280;25478;42.626;23.320;2023-08-08T11:50:15;93306.78;;;20.70;53.87
39789;BME280;25478;42.626;23.320;2023-08-08T11:52:45;93306.22;;;20.75;54.29
39789;BME280;25478;42.626;23.320;2023-08-08T11:55:12;93298.28;;;20.85;53.52
39789;BME280;25478;42.626;23.320;2023-08-08T11:57:38;93296.25;;;20.89;53.45
39789;BME280;25478;42.626;23.320;2023-08-08T12:00:09;93289.41;;;20.88;52.59
39789;BME280;25478;42.626;23.320;2023-08-08T12:02:41;93286.81;;;20.84;53.57
39789;BME280;25478;42.626;23.320;2023-08-08T12:05:09;93300.53;;;20.86;53.67
39789;BME280;25478;42.626;23.320;2023-08-08T12:07:37;93299.47;;;20.84;54.08
39789;BME280;25478;42.626;23.320;2023-08-08T12:10:03;93306.41;;;20.94;53.20
39789;BME280;25478;42.626;23.320;2023-08-08T12:12:32;93276.31;;;20.90;52.72
39789;BME280;25478;42.626;23.320;2023-08-08T12:15:07;93280.88;;;21.02;53.03
39789;BME280;25478;42.626;23.320;2023-08-08T12:17:34;93252.31;;;20.77;53.00
39789;BME280;25478;42.626;23.320;2023-08-08T12:20:00;93285.28;;;20.96;53.90
39789;BME280;25478;42.626;23.320;2023-08-08T12:22:26;93286.22;;;21.02;53.10
39789;BME280;25478;42.626;23.320;2023-08-08T12:24:51;93286.13;;;21.05;53.02
39789;BME280;25478;42.626;23.320;2023-08-08T12:27:17;93260.84;;;21.06;52.63
39789;BME280;25478;42.626;23.320;2023-08-08T12:29:43;93279.25;;;21.26;52.07
39789;BME280;25478;42.626;23.320;2023-08-08T12:32:09;93261.53;;;21.20;51.70
39789;BME280;25478;42.626;23.320;2023-08-08T12:34:35;93273.50;;;21.28;51.87
39789;BME280;25478;42.626;23.320;2023-08-08T12:37:01;93282.47;;;21.34;52.20
39789;BME280;25478;42.626;23.320;2023-08-08T12:39:28;93279.41;;;21.45;51.98
39789;BME280;25478;42.626;23.320;2023-08-08T12:41:54;93272.34;;;21.60;51.07
39789;BME280;25478;42.626;23.320;2023-08-08T12:44:19;93285.91;;;21.66;51.04
39789;BME280;25478;42.626;23.320;2023-08-08T12:46:44;93276.88;;;21.72;50.68
39789;BME280;25478;42.626;23.320;2023-08-08T12:49:10;93266.38;;;21.56;49.58